Los Angeles Regional Airport Weather

KWHP 182255Z 12008KT 10SM SKC 29/06 A2994

KAPV 191256Z AUTO 05004KT 10SM FEW075 SCT090 BKN110 18/18 A2996 RMK AO2 SLP144 T01830178 $

KAVX 191651Z AUTO 00000KT 6SM BR BKN004 17/16 A2996 RMK AO2 SLP127 T01720156 $

KBFL 191654Z 00000KT 5SM HZ CLR 19/04 A2998 RMK AO2 SLP149 T01890044

KBUR 191653Z 00000KT 6SM HZ CLR 20/14 A2993 RMK AO2 SLP125 T02000139

KCMA 191555Z 00000KT 6SM HZ CLR 18/13 A2993 RMK AO2 SLP142 T01780133

KCNO 191653Z 23004KT 3SM HZ CLR 21/15 A2995 RMK AO2 SLP136 T02060150

KEMT 191645Z 00000KT 8SM SCT019 20/14 A2995

KFUL 191653Z 00000KT 7SM BKN021 22/16 A2991 RMK AO2 SLP128 T02170161

KHHR 191653Z 21004KT 8SM OVC023 22/16 A2993 RMK AO2 SLP133 T02170161

KL35 191635Z AUTO 00000KT 10SM CLR 16/00 A3013 RMK AO2

KLAX 191653Z 13005KT 9SM BKN022 22/16 A2993 RMK AO2 SLP132 BKN V SCT T02220161

KLGB 191653Z 14003KT 8SM OVC022 21/16 A2992 RMK AO2 SLP132 T02110161

KONT 191653Z 25003KT 4SM HZ SCT250 20/14 A2993 RMK AO2 SLP125 T02000144

KOXR 191651Z 00000KT 7SM CLR 18/14 A2993 RMK AO2 SLP134 T01830144 $

KPMD 191653Z AUTO 28004KT 10SM CLR 23/M06 A2996 RMK AO2 SLP123 T02331056

KPOC 191647Z 23007KT 5SM HZ FEW013 19/15 A2996

KRAL 191653Z 27003KT 6SM HZ FEW120 19/16 A2994 RMK AO2 SLP125 T01890156

KSMO 191651Z 00000KT 9SM SCT023 SCT031 22/16 A2993 RMK AO2 SLP134 T02170156

KSNA 191653Z 00000KT 10SM BKN024 BKN240 21/16 A2992 RMK AO2 SLP130 T02110156

KTOA 191547Z 00000KT 10SM FEW012 BKN022 19/16 A2992

KTRM 191652Z AUTO 18004KT 10SM CLR 28/12 A2977 RMK AO2 SLP082 T02780122

KVNY 191651Z 21004KT 5SM HZ SCT016 19/14 A2994 RMK AO2 SLP131 T01890144

KWJF 191556Z 25010KT 10SM CLR 22/M04 A2994 RMK AO2 SLP126 T02171039



How to read METARs